sensor_id;sensor_type;location;lat;lon;timestamp;pressure;altitude;pressure_sealevel;temperature;humidity
16016;BME280;8112;53.592;10.184;2023-06-10T00:00:03;101584.34;;;15.67;100.00
16016;BME280;8112;53.592;10.184;2023-06-10T00:05:12;101582.59;;;15.40;100.00
16016;BME280;8112;53.592;10.184;2023-06-10T00:10:16;101571.81;;;15.29;100.00
16016;BME280;8112;53.592;10.184;2023-06-10T00:15:19;101582.34;;;15.30;100.00
16016;BME280;8112;53.592;10.184;2023-06-10T00:20:21;101576.31;;;15.28;100.00
16016;BME280;8112;53.592;10.184;2023-06-10T00:25:24;101577.78;;;15.05;100.00
16016;BME280;8112;53.592;10.184;2023-06-10T00:30:27;101578.09;;;15.28;100.00
16016;BME280;8112;53.592;10.184;2023-06-10T00:35:29;101572.28;;;15.35;100.00
16016;BME280;8112;53.592;10.184;2023-06-10T00:40:30;101574.28;;;15.32;100.00
16016;BME280;8112;53.592;10.184;2023-06-10T00:45:34;101568.03;;;15.46;100.00
16016;BME280;8112;53.592;10.184;2023-06-10T00:50:36;101569.00;;;15.17;100.00
16016;BME280;8112;53.592;10.184;2023-06-10T00:55:40;101576.81;;;15.20;100.00
16016;BME280;8112;53.592;10.184;2023-06-10T01:00:44;101580.13;;;15.37;100.00
16016;BME280;8112;53.592;10.184;2023-06-10T01:05:52;101575.19;;;15.18;100.00
16016;BME280;8112;53.592;10.184;2023-06-10T01:11:00;101584.44;;;14.98;100.00
16016;BME280;8112;53.592;10.184;2023-06-10T01:16:04;101587.66;;;15.03;100.00
16016;BME280;8112;53.592;10.184;2023-06-10T01:21:06;101587.13;;;14.83;100.00
16016;BME280;8112;53.592;10.184;2023-06-10T01:26:11;101588.81;;;14.70;100.00
16016;BME280;8112;53.592;10.184;2023-06-10T01:31:17;101587.88;;;14.85;100.00
16016;BME280;8112;53.592;10.184;2023-06-10T01:36:23;101593.38;;;14.53;100.00
16016;BME280;8112;53.592;10.184;2023-06-10T01:41:27;101594.91;;;14.28;100.00
16016;BME280;8112;53.592;10.184;2023-06-10T01:46:30;101582.56;;;14.27;100.00
16016;BME280;8112;53.592;10.184;2023-06-10T01:51:31;101590.53;;;14.42;100.00
16016;BME280;8112;53.592;10.184;2023-06-10T01:56:35;101581.06;;;14.37;100.00
16016;BME280;8112;53.592;10.184;2023-06-10T02:01:37;101584.66;;;14.65;100.00
16016;BME280;8112;53.592;10.184;2023-06-10T02:06:38;101585.53;;;14.37;100.00
16016;BME280;8112;53.592;10.184;2023-06-10T02:11:42;101585.69;;;14.05;100.00
16016;BME280;8112;53.592;10.184;2023-06-10T02:16:44;101578.41;;;14.23;100.00
16016;BME280;8112;53.592;10.184;2023-06-10T02:21:47;101580.69;;;14.29;100.00
16016;BME280;8112;53.592;10.184;2023-06-10T02:26:50;101580.84;;;14.26;100.00
16016;BME280;8112;53.592;10.184;2023-06-10T02:31:52;101581.81;;;14.39;100.00
16016;BME280;8112;53.592;10.184;2023-06-10T02:36:54;101580.69;;;14.15;100.00
16016;BME280;8112;53.592;10.184;2023-06-10T02:41:57;101580.38;;;14.05;100.00
16016;BME280;8112;53.592;10.184;2023-06-10T02:46:59;101582.94;;;14.06;100.00
16016;BME280;8112;53.592;10.184;2023-06-10T02:52:02;101580.47;;;14.03;100.00
16016;BME280;8112;53.592;10.184;2023-06-10T02:57:05;101585.69;;;14.05;100.00
16016;BME280;8112;53.592;10.184;2023-06-10T03:02:08;101585.41;;;14.24;100.00
16016;BME280;8112;53.592;10.184;2023-06-10T03:07:17;101594.91;;;14.28;100.00
16016;BME280;8112;53.592;10.184;2023-06-10T03:12:23;101597.66;;;14.41;100.00
16016;BME280;8112;53.592;10.184;2023-06-10T03:17:25;101589.97;;;14.36;100.00
16016;BME280;8112;53.592;10.184;2023-06-10T03:22:27;101595.28;;;14.36;100.00
16016;BME280;8112;53.592;10.184;2023-06-10T03:27:38;101597.25;;;14.47;100.00
16016;BME280;8112;53.592;10.184;2023-06-10T03:32:42;101591.59;;;14.39;100.00
16016;BME280;8112;53.592;10.184;2023-06-10T03:37:46;101596.03;;;14.53;100.00
16016;BME280;8112;53.592;10.184;2023-06-10T03:42:49;101591.66;;;14.81;100.00
16016;BME280;8112;53.592;10.184;2023-06-10T03:47:52;101598.41;;;14.72;100.00
16016;BME280;8112;53.592;10.184;2023-06-10T03:53:01;101596.03;;;14.82;100.00
16016;BME280;8112;53.592;10.184;2023-06-10T03:58:04;101593.53;;;14.93;100.00
16016;BME280;8112;53.592;10.184;2023-06-10T04:03:06;101581.16;;;15.21;100.00
16016;BME280;8112;53.592;10.184;2023-06-10T04:08:13;101586.72;;;15.31;100.00
16016;BME280;8112;53.592;10.184;2023-06-10T04:13:16;101588.72;;;15.28;100.00
16016;BME280;8112;53.592;10.184;2023-06-10T04:18:25;101590.50;;;15.27;100.00
16016;BME280;8112;53.592;10.184;2023-06-10T04:23:30;101588.41;;;15.73;100.00
16016;BME280;8112;53.592;10.184;2023-06-10T04:28:36;101586.13;;;16.20;100.00
16016;BME280;8112;53.592;10.184;2023-06-10T04:33:38;101578.38;;;16.80;100.00
16016;BME280;8112;53.592;10.184;2023-06-10T04:38:40;101580.06;;;17.31;100.00
16016;BME280;8112;53.592;10.184;2023-06-10T04:43:44;101577.63;;;17.04;100.00
16016;BME280;8112;53.592;10.184;2023-06-10T04:48:47;101581.22;;;17.27;100.00
16016;BME280;8112;53.592;10.184;2023-06-10T04:53:48;101573.03;;;17.30;100.00
16016;BME280;8112;53.592;10.184;2023-06-10T04:58:51;101573.78;;;17.44;100.00
16016;BME280;8112;53.592;10.184;2023-06-10T05:03:53;101577.53;;;17.41;100.00
16016;BME280;8112;53.592;10.184;2023-06-10T05:08:55;101573.63;;;17.34;100.00
16016;BME280;8112;53.592;10.184;2023-06-10T05:13:58;101575.78;;;17.64;100.00
16016;BME280;8112;53.592;10.184;2023-06-10T05:19:00;101582.34;;;18.07;100.00
16016;BME280;8112;53.592;10.184;2023-06-10T05:24:01;101585.28;;;18.16;100.00
16016;BME280;8112;53.592;10.184;2023-06-10T05:29:04;101581.25;;;18.56;100.00
16016;BME280;8112;53.592;10.184;2023-06-10T05:34:06;101584.75;;;18.79;100.00
16016;BME280;8112;53.592;10.184;2023-06-10T05:39:09;101580.38;;;19.01;100.00
16016;BME280;8112;53.592;10.184;2023-06-10T05:44:12;101573.28;;;19.22;100.00
16016;BME280;8112;53.592;10.184;2023-06-10T05:49:13;101577.41;;;19.15;100.00
16016;BME280;8112;53.592;10.184;2023-06-10T05:54:15;101566.06;;;18.90;100.00
16016;BME280;8112;53.592;10.184;2023-06-10T05:59:18;101580.38;;;19.01;100.00
16016;BME280;8112;53.592;10.184;2023-06-10T06:04:20;101578.94;;;18.74;100.00
16016;BME280;8112;53.592;10.184;2023-06-10T06:09:21;101573.69;;;19.06;100.00
16016;BME280;8112;53.592;10.184;2023-06-10T06:14:24;101563.59;;;19.10;100.00
16016;BME280;8112;53.592;10.184;2023-06-10T06:19:26;101566.94;;;19.56;100.00
16016;BME280;8112;53.592;10.184;2023-06-10T06:24:28;101555.84;;;20.03;100.00
16016;BME280;8112;53.592;10.184;2023-06-10T06:29:31;101552.56;;;20.21;100.00
16016;BME280;8112;53.592;10.184;2023-06-10T06:34:33;101565.44;;;20.06;100.00
16016;BME280;8112;53.592;10.184;2023-06-10T06:39:34;101562.06;;;20.04;100.00
16016;BME280;8112;53.592;10.184;2023-06-10T06:44:37;101568.78;;;20.29;100.00
16016;BME280;8112;53.592;10.184;2023-06-10T06:49:39;101556.16;;;20.92;100.00
16016;BME280;8112;53.592;10.184;2023-06-10T06:54:41;101557.16;;;21.01;100.00
16016;BME280;8112;53.592;10.184;2023-06-10T06:59:44;101553.94;;;20.97;100.00
16016;BME280;8112;53.592;10.184;2023-06-10T07:04:45;101559.00;;;21.10;100.00
16016;BME280;8112;53.592;10.184;2023-06-10T07:09:49;101563.94;;;21.64;100.00
16016;BME280;8112;53.592;10.184;2023-06-10T07:14:52;101568.34;;;21.16;100.00
16016;BME280;8112;53.592;10.184;2023-06-10T07:19:54;101579.03;;;21.75;100.00
16016;BME280;8112;53.592;10.184;2023-06-10T07:24:57;101583.25;;;21.97;100.00
16016;BME280;8112;53.592;10.184;2023-06-10T07:30:01;101571.84;;;21.66;100.00
16016;BME280;8112;53.592;10.184;2023-06-10T07:35:03;101572.16;;;22.20;100.00
16016;BME280;8112;53.592;10.184;2023-06-10T07:40:06;101577.69;;;22.46;100.00
16016;BME280;8112;53.592;10.184;2023-06-10T07:45:10;101581.28;;;21.89;100.00
16016;BME280;8112;53.592;10.184;2023-06-10T07:50:11;101578.81;;;22.16;100.00
16016;BME280;8112;53.592;10.184;2023-06-10T07:55:13;101573.78;;;22.31;100.00
16016;BME280;8112;53.592;10.184;2023-06-10T08:00:17;101570.19;;;22.50;100.00
16016;BME280;8112;53.592;10.184;2023-06-10T08:05:19;101562.94;;;23.43;100.00
16016;BME280;8112;53.592;10.184;2023-06-10T08:10:21;101558.31;;;23.35;100.00
16016;BME280;8112;53.592;10.184;2023-06-10T08:15:24;101566.16;;;23.46;100.00
16016;BME280;8112;53.592;10.184;2023-06-10T08:20:26;101569.06;;;23.17;100.00
16016;BME280;8112;53.592;10.184;2023-06-10T08:25:28;101568.84;;;23.46;100.00
16016;BME280;8112;53.592;10.184;2023-06-10T08:30:32;101571.72;;;24.24;100.00
16016;BME280;8112;53.592;10.184;2023-06-10T08:35:33;101560.28;;;24.30;100.00
16016;BME280;8112;53.592;10.184;2023-06-10T08:40:35;101558.00;;;24.95;100.00
16016;BME280;8112;53.592;10.184;2023-06-10T08:45:42;101566.53;;;24.74;100.00
16016;BME280;8112;53.592;10.184;2023-06-10T08:50:44;101561.97;;;24.31;100.00
16016;BME280;8112;53.592;10.184;2023-06-10T08:55:50;101558.28;;;24.32;100.00
16016;BME280;8112;53.592;10.184;2023-06-10T09:00:54;101561.72;;;24.51;100.00
16016;BME280;8112;53.592;10.184;2023-06-10T09:05:56;101564.41;;;25.11;100.00
16016;BME280;8112;53.592;10.184;2023-06-10T09:10:58;101557.84;;;25.22;100.00
16016;BME280;8112;53.592;10.184;2023-06-10T09:16:02;101552.13;;;25.74;100.00
16016;BME280;8112;53.592;10.184;2023-06-10T09:21:05;101553.28;;;25.80;100.00
16016;BME280;8112;53.592;10.184;2023-06-10T09:26:09;101560.03;;;25.84;100.00
16016;BME280;8112;53.592;10.184;2023-06-10T09:31:14;101548.03;;;25.79;100.00
16016;BME280;8112;53.592;10.184;2023-06-10T09:36:21;101552.94;;;25.83;100.00
16016;BME280;8112;53.592;10.184;2023-06-10T09:41:31;101537.44;;;25.44;100.00
16016;BME280;8112;53.592;10.184;2023-06-10T09:46:35;101544.50;;;25.86;100.00
16016;BME280;8112;53.592;10.184;2023-06-10T09:51:36;101544.41;;;26.28;100.00
16016;BME280;8112;53.592;10.184;2023-06-10T09:56:38;101539.03;;;26.51;100.00
16016;BME280;8112;53.592;10.184;2023-06-10T10:01:54;101543.41;;;26.12;100.00
16016;BME280;8112;53.592;10.184;2023-06-10T10:06:56;101547.19;;;26.43;100.00
16016;BME280;8112;53.592;10.184;2023-06-10T10:12:01;101542.44;;;25.97;100.00
16016;BME280;8112;53.592;10.184;2023-06-10T10:17:08;101557.06;;;26.27;100.00
16016;BME280;8112;53.592;10.184;2023-06-10T10:22:15;101541.34;;;26.31;100.00
16016;BME280;8112;53.592;10.184;2023-06-10T10:27:24;101546.94;;;26.93;100.00
16016;BME280;8112;53.592;10.184;2023-06-10T10:32:33;101549.72;;;27.46;100.00
16016;BME280;8112;53.592;10.184;2023-06-10T10:37:36;101543.91;;;27.72;99.17
16016;BME280;8112;53.592;10.184;2023-06-10T10:42:38;101529.44;;;27.80;100.00
16016;BME280;8112;53.592;10.184;2023-06-10T10:47:43;101533.66;;;27.83;100.00
16016;BME280;8112;53.592;10.184;2023-06-10T10:52:52;101536.28;;;28.21;98.39
16016;BME280;8112;53.592;10.184;2023-06-10T10:57:55;101539.03;;;28.13;93.31
16016;BME280;8112;53.592;10.184;2023-06-10T11:03:05;101538.31;;;28.34;93.93
16016;BME280;8112;53.592;10.184;2023-06-10T11:08:08;101531.00;;;28.35;97.02
16016;BME280;8112;53.592;10.184;2023-06-10T11:13:13;101532.06;;;29.14;92.64
16016;BME280;8112;53.592;10.184;2023-06-10T11:18:20;101529.41;;;29.21;89.67
16016;BME280;8112;53.592;10.184;2023-06-10T11:23:30;101533.56;;;28.95;93.86
16016;BME280;8112;53.592;10.184;2023-06-10T11:28:32;101530.72;;;28.81;92.82
16016;BME280;8112;53.592;10.184;2023-06-10T11:33:38;101525.03;;;28.98;90.74
16016;BME280;8112;53.592;10.184;2023-06-10T11:38:40;101518.19;;;29.02;89.90
16016;BME280;8112;53.592;10.184;2023-06-10T11:43:42;101526.50;;;28.42;92.43
16016;BME280;8112;53.592;10.184;2023-06-10T11:48:51;101525.13;;;27.71;94.77
16016;BME280;8112;53.592;10.184;2023-06-10T11:53:53;101518.03;;;27.31;97.56
16016;BME280;8112;53.592;10.184;2023-06-10T11:58:57;101530.50;;;27.17;100.00
16016;BME280;8112;53.592;10.184;2023-06-10T12:04:03;101516.41;;;27.45;100.00
16016;BME280;8112;53.592;10.184;2023-06-10T12:09:05;101515.06;;;27.41;100.00
16016;BME280;8112;53.592;10.184;2023-06-10T12:14:07;101515.41;;;27.62;99.82
16016;BME280;8112;53.592;10.184;2023-06-10T12:19:10;101510.38;;;27.20;100.00
16016;BME280;8112;53.592;10.184;2023-06-10T12:24:12;101512.75;;;27.38;100.00
16016;BME280;8112;53.592;10.184;2023-06-10T12:29:20;101506.16;;;27.17;100.00
16016;BME280;8112;53.592;10.184;2023-06-10T12:34:35;101494.16;;;27.20;100.00
16016;BME280;8112;53.592;10.184;2023-06-10T12:39:37;101488.66;;;27.28;100.00
16016;BME280;8112;53.592;10.184;2023-06-10T12:44:40;101476.81;;;27.44;100.00
16016;BME280;8112;53.592;10.184;2023-06-10T12:49:43;101487.16;;;27.64;100.00
16016;BME280;8112;53.592;10.184;2023-06-10T12:54:45;101477.03;;;27.88;100.00
16016;BME280;8112;53.592;10.184;2023-06-10T12:59:47;101468.00;;;27.66;100.00
16016;BME280;8112;53.592;10.184;2023-06-10T13:04:54;101473.69;;;27.71;100.00
16016;BME280;8112;53.592;10.184;2023-06-10T13:09:56;101474.63;;;27.78;100.00
16016;BME280;8112;53.592;10.184;2023-06-10T13:14:57;101471.81;;;28.16;100.00
16016;BME280;8112;53.592;10.184;2023-06-10T13:20:00;101476.56;;;27.84;100.00
16016;BME280;8112;53.592;10.184;2023-06-10T13:25:04;101470.03;;;27.64;100.00
16016;BME280;8112;53.592;10.184;2023-06-10T13:30:09;101467.97;;;27.51;100.00
16016;BME280;8112;53.592;10.184;2023-06-10T13:35:12;101464.56;;;27.34;100.00
16016;BME280;8112;53.592;10.184;2023-06-10T13:40:14;101462.88;;;27.17;100.00
16016;BME280;8112;53.592;10.184;2023-06-10T13:45:16;101457.53;;;27.63;100.00
16016;BME280;8112;53.592;10.184;2023-06-10T13:50:19;101459.47;;;27.39;100.00
16016;BME280;8112;53.592;10.184;2023-06-10T13:55:21;101467.69;;;27.45;100.00
16016;BME280;8112;53.592;10.184;2023-06-10T14:00:24;101469.56;;;27.60;100.00
16016;BME280;8112;53.592;10.184;2023-06-10T14:05:29;101460.28;;;27.24;100.00
16016;BME280;8112;53.592;10.184;2023-06-10T14:10:30;101456.44;;;27.18;100.00
16016;BME280;8112;53.592;10.184;2023-06-10T14:15:32;101451.94;;;27.11;100.00
16016;BME280;8112;53.592;10.184;2023-06-10T14:20:35;101457.81;;;26.99;100.00
16016;BME280;8112;53.592;10.184;2023-06-10T14:25:37;101458.88;;;27.28;100.00
16016;BME280;8112;53.592;10.184;2023-06-10T14:30:39;101456.81;;;27.30;100.00
16016;BME280;8112;53.592;10.184;2023-06-10T14:35:42;101455.97;;;27.15;100.00
16016;BME280;8112;53.592;10.184;2023-06-10T14:40:44;101452.97;;;27.10;100.00
16016;BME280;8112;53.592;10.184;2023-06-10T14:45:45;101459.84;;;27.81;100.00
16016;BME280;8112;53.592;10.184;2023-06-10T14:50:48;101459.28;;;28.00;100.00
16016;BME280;8112;53.592;10.184;2023-06-10T14:55:51;101451.50;;;28.49;100.00
16016;BME280;8112;53.592;10.184;2023-06-10T15:00:53;101460.88;;;28.47;100.00
16016;BME280;8112;53.592;10.184;2023-06-10T15:05:56;101458.34;;;27.93;100.00
16016;BME280;8112;53.592;10.184;2023-06-10T15:10:57;101460.41;;;27.61;100.00
16016;BME280;8112;53.592;10.184;2023-06-10T15:16:01;101458.78;;;28.12;100.00
16016;BME280;8112;53.592;10.184;2023-06-10T15:21:04;101462.25;;;29.01;99.11
16016;BME280;8112;53.592;10.184;2023-06-10T15:26:06;101450.75;;;30.74;82.60
16016;BME280;8112;53.592;10.184;2023-06-10T15:31:07;101445.38;;;31.80;75.85
16016;BME280;8112;53.592;10.184;2023-06-10T15:36:11;101441.31;;;31.17;78.03
16016;BME280;8112;53.592;10.184;2023-06-10T15:41:13;101445.75;;;29.60;80.65
16016;BME280;8112;53.592;10.184;2023-06-10T15:46:15;101437.94;;;28.71;89.18
16016;BME280;8112;53.592;10.184;2023-06-10T15:51:18;101440.59;;;28.06;93.00
16016;BME280;8112;53.592;10.184;2023-06-10T15:56:20;101434.38;;;27.90;97.74
16016;BME280;8112;53.592;10.184;2023-06-10T16:01:23;101430.84;;;28.70;94.28
16016;BME280;8112;53.592;10.184;2023-06-10T16:06:26;101427.66;;;30.36;82.12
16016;BME280;8112;53.592;10.184;2023-06-10T16:11:27;101423.56;;;30.80;75.76
16016;BME280;8112;53.592;10.184;2023-06-10T16:16:29;101418.50;;;31.31;69.02
16016;BME280;8112;53.592;10.184;2023-06-10T16:21:32;101417.69;;;30.83;66.99
16016;BME280;8112;53.592;10.184;2023-06-10T16:26:34;101416.63;;;30.98;70.29
16016;BME280;8112;53.592;10.184;2023-06-10T16:31:35;101428.53;;;30.56;68.07
16016;BME280;8112;53.592;10.184;2023-06-10T16:36:38;101426.78;;;29.31;77.27
16016;BME280;8112;53.592;10.184;2023-06-10T16:41:41;101432.22;;;29.02;83.43
16016;BME280;8112;53.592;10.184;2023-06-10T16:46:42;101432.94;;;29.95;79.82
16016;BME280;8112;53.592;10.184;2023-06-10T16:51:45;101425.97;;;30.21;74.05
16016;BME280;8112;53.592;10.184;2023-06-10T16:56:47;101431.47;;;29.86;79.13
16016;BME280;8112;53.592;10.184;2023-06-10T17:01:49;101438.91;;;29.35;79.15
16016;BME280;8112;53.592;10.184;2023-06-10T17:06:52;101433.03;;;29.03;82.55
16016;BME280;8112;53.592;10.184;2023-06-10T17:11:54;101429.91;;;29.35;82.13
16016;BME280;8112;53.592;10.184;2023-06-10T17:16:56;101430.81;;;29.13;83.55
16016;BME280;8112;53.592;10.184;2023-06-10T17:22:00;101437.41;;;28.02;88.83
16016;BME280;8112;53.592;10.184;2023-06-10T17:27:03;101449.28;;;26.64;100.00
16016;BME280;8112;53.592;10.184;2023-06-10T17:32:06;101460.78;;;25.95;100.00
16016;BME280;8112;53.592;10.184;2023-06-10T17:37:09;101452.75;;;25.78;100.00
16016;BME280;8112;53.592;10.184;2023-06-10T17:42:11;101456.19;;;25.30;100.00
16016;BME280;8112;53.592;10.184;2023-06-10T17:47:13;101463.13;;;25.16;100.00
16016;BME280;8112;53.592;10.184;2023-06-10T17:52:16;101480.16;;;25.25;100.00
16016;BME280;8112;53.592;10.184;2023-06-10T17:57:18;101474.59;;;25.18;100.00
16016;BME280;8112;53.592;10.184;2023-06-10T18:02:19;101470.53;;;24.81;100.00
16016;BME280;8112;53.592;10.184;2023-06-10T18:07:22;101479.75;;;24.70;100.00
16016;BME280;8112;53.592;10.184;2023-06-10T18:12:24;101480.63;;;24.71;100.00
16016;BME280;8112;53.592;10.184;2023-06-10T18:17:26;101476.88;;;24.55;100.00
16016;BME280;8112;53.592;10.184;2023-06-10T18:22:29;101480.81;;;24.18;100.00
16016;BME280;8112;53.592;10.184;2023-06-10T18:27:30;101483.53;;;24.26;100.00
16016;BME280;8112;53.592;10.184;2023-06-10T18:32:32;101481.50;;;24.20;100.00
16016;BME280;8112;53.592;10.184;2023-06-10T18:37:36;101485.19;;;24.19;100.00
16016;BME280;8112;53.592;10.184;2023-06-10T18:42:37;101485.16;;;24.11;100.00
16016;BME280;8112;53.592;10.184;2023-06-10T18:47:39;101493.47;;;24.26;100.00
16016;BME280;8112;53.592;10.184;2023-06-10T18:52:42;101492.72;;;24.58;100.00
16016;BME280;8112;53.592;10.184;2023-06-10T18:57:44;101493.72;;;24.06;100.00
16016;BME280;8112;53.592;10.184;2023-06-10T19:02:45;101515.09;;;23.81;100.00
16016;BME280;8112;53.592;10.184;2023-06-10T19:07:49;101524.59;;;23.94;100.00
16016;BME280;8112;53.592;10.184;2023-06-10T19:12:50;101519.88;;;23.61;100.00
16016;BME280;8112;53.592;10.184;2023-06-10T19:17:52;101533.19;;;23.44;100.00
16016;BME280;8112;53.592;10.184;2023-06-10T19:22:55;101528.19;;;23.49;100.00
16016;BME280;8112;53.592;10.184;2023-06-10T19:27:57;101547.47;;;23.45;100.00
16016;BME280;8112;53.592;10.184;2023-06-10T19:32:58;101550.31;;;23.25;100.00
16016;BME280;8112;53.592;10.184;2023-06-10T19:38:01;101560.00;;;23.18;100.00
16016;BME280;8112;53.592;10.184;2023-06-10T19:43:03;101566.06;;;23.02;100.00
16016;BME280;8112;53.592;10.184;2023-06-10T19:48:05;101585.31;;;22.79;100.00
16016;BME280;8112;53.592;10.184;2023-06-10T19:53:08;101583.47;;;22.80;100.00
16016;BME280;8112;53.592;10.184;2023-06-10T19:58:10;101583.22;;;22.73;100.00
16016;BME280;8112;53.592;10.184;2023-06-10T20:03:12;101585.81;;;22.64;100.00
16016;BME280;8112;53.592;10.184;2023-06-10T20:08:15;101606.59;;;22.62;100.00
16016;BME280;8112;53.592;10.184;2023-06-10T20:13:17;101611.16;;;22.62;100.00
16016;BME280;8112;53.592;10.184;2023-06-10T20:18:18;101640.22;;;22.67;100.00
16016;BME280;8112;53.592;10.184;2023-06-10T20:23:22;101642.00;;;22.86;100.00
16016;BME280;8112;53.592;10.184;2023-06-10T20:28:24;101644.66;;;22.86;100.00
16016;BME280;8112;53.592;10.184;2023-06-10T20:33:26;101640.91;;;22.78;100.00
16016;BME280;8112;53.592;10.184;2023-06-10T20:38:29;101656.78;;;22.72;100.00
16016;BME280;8112;53.592;10.184;2023-06-10T20:43:30;101661.06;;;22.45;100.00
16016;BME280;8112;53.592;10.184;2023-06-10T20:48:32;101661.84;;;22.27;100.00
16016;BME280;8112;53.592;10.184;2023-06-10T20:53:35;101660.03;;;22.18;100.00
16016;BME280;8112;53.592;10.184;2023-06-10T20:58:37;101667.38;;;22.16;100.00
16016;BME280;8112;53.592;10.184;2023-06-10T21:03:39;101670.53;;;21.82;100.00
16016;BME280;8112;53.592;10.184;2023-06-10T21:08:42;101657.81;;;21.64;100.00
16016;BME280;8112;53.592;10.184;2023-06-10T21:13:43;101660.63;;;21.62;100.00
16016;BME280;8112;53.592;10.184;2023-06-10T21:18:45;101657.81;;;21.44;100.00
16016;BME280;8112;53.592;10.184;2023-06-10T21:23:48;101657.88;;;21.13;100.00
16016;BME280;8112;53.592;10.184;2023-06-10T21:28:50;101668.41;;;20.95;100.00
16016;BME280;8112;53.592;10.184;2023-06-10T21:33:52;101662.94;;;20.75;100.00
16016;BME280;8112;53.592;10.184;2023-06-10T21:38:55;101666.50;;;20.76;100.00
16016;BME280;8112;53.592;10.184;2023-06-10T21:43:56;101675.44;;;20.55;100.00
16016;BME280;8112;53.592;10.184;2023-06-10T21:48:58;101674.72;;;20.53;100.00
16016;BME280;8112;53.592;10.184;2023-06-10T21:54:03;101682.09;;;20.40;100.00
16016;BME280;8112;53.592;10.184;2023-06-10T21:59:06;101688.81;;;20.13;100.00
16016;BME280;8112;53.592;10.184;2023-06-10T22:04:08;101691.13;;;20.17;100.00
16016;BME280;8112;53.592;10.184;2023-06-10T22:09:11;101687.84;;;19.92;100.00
16016;BME280;8112;53.592;10.184;2023-06-10T22:14:13;101691.41;;;19.82;100.00
16016;BME280;8112;53.592;10.184;2023-06-10T22:19:14;101686.00;;;19.60;100.00
16016;BME280;8112;53.592;10.184;2023-06-10T22:24:17;101691.06;;;19.42;100.00
16016;BME280;8112;53.592;10.184;2023-06-10T22:29:19;101680.53;;;19.06;100.00
16016;BME280;8112;53.592;10.184;2023-06-10T22:34:21;101688.91;;;19.02;100.00
16016;BME280;8112;53.592;10.184;2023-06-10T22:39:24;101687.56;;;18.85;100.00
16016;BME280;8112;53.592;10.184;2023-06-10T22:44:26;101695.47;;;18.75;100.00
16016;BME280;8112;53.592;10.184;2023-06-10T22:49:28;101688.91;;;18.68;100.00
16016;BME280;8112;53.592;10.184;2023-06-10T22:54:31;101689.75;;;18.79;100.00
16016;BME280;8112;53.592;10.184;2023-06-10T22:59:33;101690.09;;;18.52;100.00
16016;BME280;8112;53.592;10.184;2023-06-10T23:04:34;101695.09;;;18.68;100.00
16016;BME280;8112;53.592;10.184;2023-06-10T23:09:37;101690.44;;;18.36;100.00
16016;BME280;8112;53.592;10.184;2023-06-10T23:14:39;101690.81;;;18.31;100.00
16016;BME280;8112;53.592;10.184;2023-06-10T23:19:41;101688.84;;;18.22;100.00
16016;BME280;8112;53.592;10.184;2023-06-10T23:24:45;101693.00;;;18.37;100.00
16016;BME280;8112;53.592;10.184;2023-06-10T23:29:47;101704.34;;;18.17;100.00
16016;BME280;8112;53.592;10.184;2023-06-10T23:34:48;101700.81;;;17.92;100.00
16016;BME280;8112;53.592;10.184;2023-06-10T23:39:51;101707.03;;;17.92;100.00
16016;BME280;8112;53.592;10.184;2023-06-10T23:44:54;101707.03;;;17.92;100.00
16016;BME280;8112;53.592;10.184;2023-06-10T23:49:56;101715.25;;;17.89;100.00
16016;BME280;8112;53.592;10.184;2023-06-10T23:54:59;101703.47;;;17.80;100.00
